Time;durP1;ratioP1;P1;durP2;ratioP2;P2;SDS_P1;SDS_P2;PMS_P1;PMS_P2;Temp;Humidity;BMP_temperature;BMP_pressure;BME280_temperature;BME280_humidity;BME280_pressure;Samples;Min_cycle;Max_cycle;Signal;HPM_P1;HPM_P2
2022/03/03 00:02:23;;;;;;;25.30;18.93;;;4.30;99.90;;;;;;5074629;28;20453;-73
2022/03/03 00:04:50;;;;;;;23.73;17.70;;;4.20;99.90;;;;;;5074252;28;20459;-75
2022/03/03 00:07:17;;;;;;;25.70;18.37;;;4.20;99.90;;;;;;5074519;28;20457;-76
2022/03/03 00:09:44;;;;;;;23.93;18.43;;;4.20;99.90;;;;;;5073340;28;21038;-73
2022/03/03 00:12:11;;;;;;;24.20;19.13;;;4.20;99.90;;;;;;5074483;28;20439;-79
2022/03/03 00:14:37;;;;;;;26.13;18.83;;;4.10;99.90;;;;;;5074132;28;20442;-74
2022/03/03 00:17:06;;;;;;;27.57;18.87;;;4.00;99.90;;;;;;5074232;28;20442;-74
2022/03/03 00:19:33;;;;;;;28.07;19.30;;;4.00;99.90;;;;;;5074395;28;20490;-83
2022/03/03 00:21:59;;;;;;;24.97;18.17;;;4.00;99.90;;;;;;5073847;28;20450;-73
2022/03/03 00:24:26;;;;;;;25.07;19.07;;;3.90;99.90;;;;;;5074152;28;20491;-73
2022/03/03 00:26:53;;;;;;;24.10;19.30;;;3.80;99.90;;;;;;5073856;28;20435;-74
2022/03/03 00:29:20;;;;;;;24.70;18.53;;;3.80;99.90;;;;;;5073981;28;20458;-74
2022/03/03 00:31:47;;;;;;;26.47;19.23;;;3.70;99.90;;;;;;5073608;28;20458;-74
2022/03/03 00:34:15;;;;;;;26.33;19.23;;;3.70;99.90;;;;;;5073421;28;20929;-76
2022/03/03 00:36:43;;;;;;;26.93;20.00;;;3.70;99.90;;;;;;5073257;28;20818;-74
2022/03/03 00:39:10;;;;;;;25.13;19.17;;;3.70;99.90;;;;;;5073422;28;20783;-73
2022/03/03 00:41:37;;;;;;;25.63;19.40;;;3.70;99.90;;;;;;5073438;28;20450;-74
2022/03/03 00:44:06;;;;;;;25.83;19.80;;;3.80;99.90;;;;;;5073437;28;20431;-74
2022/03/03 00:46:33;;;;;;;27.87;19.33;;;3.80;99.90;;;;;;5073490;28;20447;-74
2022/03/03 00:49:00;;;;;;;26.80;19.23;;;3.70;99.90;;;;;;5073369;28;20472;-75
2022/03/03 00:51:28;;;;;;;26.90;19.40;;;3.70;99.90;;;;;;5072816;28;20964;-74
2022/03/03 00:53:55;;;;;;;30.00;20.47;;;3.70;99.90;;;;;;5073347;28;20454;-74
2022/03/03 00:56:23;;;;;;;28.43;19.47;;;3.60;99.90;;;;;;5073553;28;20800;-75
2022/03/03 00:58:51;;;;;;;26.93;19.10;;;3.60;99.90;;;;;;5072834;28;20846;-78
2022/03/03 01:01:18;;;;;;;24.97;19.07;;;3.60;99.90;;;;;;5073187;28;20490;-81
2022/03/03 01:03:45;;;;;;;28.00;18.93;;;3.60;99.90;;;;;;5073348;28;20542;-74
2022/03/03 01:06:12;;;;;;;29.60;20.43;;;3.50;99.90;;;;;;5073014;28;20451;-74
2022/03/03 01:08:40;;;;;;;28.40;19.23;;;3.50;99.90;;;;;;5072780;28;20469;-75
2022/03/03 01:11:07;;;;;;;25.30;19.13;;;3.60;99.90;;;;;;5073218;28;20442;-75
2022/03/03 01:13:34;;;;;;;26.67;19.27;;;3.50;99.90;;;;;;5072933;28;20438;-76
2022/03/03 01:16:01;;;;;;;31.37;19.77;;;3.40;99.90;;;;;;5072853;28;20427;-74
2022/03/03 01:18:28;;;;;;;29.43;19.37;;;3.50;99.90;;;;;;5073045;28;20822;-74
2022/03/03 01:20:55;;;;;;;27.33;18.70;;;3.50;99.90;;;;;;5071984;28;20493;-74
2022/03/03 01:23:22;;;;;;;29.43;18.97;;;3.40;99.90;;;;;;5066202;28;21029;-76
2022/03/03 01:25:50;;;;;;;27.77;19.73;;;3.40;99.90;;;;;;5072544;28;20439;-74
2022/03/03 01:28:17;;;;;;;27.70;18.50;;;3.40;99.90;;;;;;5071023;28;20838;-78
2022/03/03 01:30:44;;;;;;;24.93;18.73;;;3.40;99.90;;;;;;5073086;28;20447;-76
2022/03/03 01:33:12;;;;;;;25.50;19.20;;;3.30;99.90;;;;;;5072966;28;20438;-74
2022/03/03 01:35:39;;;;;;;23.60;19.67;;;3.30;99.90;;;;;;5072604;28;20851;-74
2022/03/03 01:38:06;;;;;;;24.43;19.13;;;3.30;99.90;;;;;;5072994;28;20443;-74
2022/03/03 01:40:33;;;;;;;27.23;19.73;;;3.30;99.90;;;;;;5071697;28;20486;-75
2022/03/03 01:43:01;;;;;;;27.13;18.73;;;3.30;99.90;;;;;;5072606;28;20959;-75
2022/03/03 01:45:28;;;;;;;23.93;18.23;;;3.20;99.90;;;;;;5072446;28;20782;-75
2022/03/03 01:47:55;;;;;;;24.97;18.50;;;3.20;99.90;;;;;;5072504;28;20940;-74
2022/03/03 01:50:21;;;;;;;28.17;19.03;;;3.20;99.90;;;;;;5072350;28;20847;-74
2022/03/03 01:52:48;;;;;;;25.43;19.33;;;3.20;99.90;;;;;;5072250;28;20823;-79
2022/03/03 01:55:15;;;;;;;25.00;19.07;;;3.10;99.90;;;;;;5072258;28;20446;-75
2022/03/03 01:57:42;;;;;;;27.70;20.13;;;3.20;99.90;;;;;;5072321;28;20442;-73
2022/03/03 02:00:12;;;;;;;25.77;20.27;;;3.20;99.90;;;;;;5072653;28;20497;-74
2022/03/03 02:02:39;;;;;;;32.30;24.73;;;3.20;99.90;;;;;;5071522;28;20425;-74
2022/03/03 02:05:08;;;;;;;29.57;20.43;;;3.30;99.90;;;;;;5072614;28;20212;-74
2022/03/03 02:07:35;;;;;;;27.23;20.63;;;3.30;99.90;;;;;;5072480;28;20442;-78
2022/03/03 02:10:02;;;;;;;29.23;19.90;;;3.20;99.90;;;;;;5072333;28;20901;-79
2022/03/03 02:12:29;;;;;;;30.23;20.73;;;3.20;99.90;;;;;;5072287;28;20520;-74
2022/03/03 02:14:56;;;;;;;28.93;19.40;;;3.20;99.90;;;;;;5072472;28;20462;-78
2022/03/03 02:17:24;;;;;;;25.83;19.00;;;3.10;99.90;;;;;;5072521;28;20443;-75
2022/03/03 02:19:51;;;;;;;28.13;19.23;;;3.00;99.90;;;;;;5072520;28;20466;-79
2022/03/03 02:22:19;;;;;;;29.87;20.37;;;3.10;99.90;;;;;;5072329;28;20513;-79
2022/03/03 02:24:46;;;;;;;25.93;18.53;;;3.10;99.90;;;;;;5072451;28;20527;-76
2022/03/03 02:27:13;;;;;;;28.90;24.00;;;3.20;99.90;;;;;;5071764;28;20438;-75
2022/03/03 02:29:40;;;;;;;30.77;22.20;;;3.20;99.90;;;;;;5072057;28;20202;-74
2022/03/03 02:32:08;;;;;;;37.93;20.43;;;3.10;99.90;;;;;;5073246;28;20434;-80
2022/03/03 02:34:36;;;;;;;27.97;20.03;;;3.10;99.90;;;;;;5075780;28;20458;-74
2022/03/03 02:37:03;;;;;;;23.60;19.43;;;3.00;99.90;;;;;;5075647;28;20457;-74
2022/03/03 02:39:31;;;;;;;28.70;19.60;;;2.90;99.90;;;;;;5075500;28;20442;-74
2022/03/03 02:41:58;;;;;;;28.13;19.33;;;2.90;99.90;;;;;;5075963;28;20492;-77
2022/03/03 02:44:25;;;;;;;26.67;19.50;;;3.00;99.90;;;;;;5075596;28;20446;-75
2022/03/03 02:46:52;;;;;;;28.17;20.70;;;3.00;99.90;;;;;;5075619;28;20442;-74
2022/03/03 02:49:19;;;;;;;26.30;18.63;;;3.00;99.90;;;;;;5075730;28;20453;-73
2022/03/03 02:51:46;;;;;;;27.10;22.90;;;3.00;99.90;;;;;;5075207;28;20428;-75
2022/03/03 02:54:13;;;;;;;27.23;20.30;;;3.10;99.90;;;;;;5075365;28;20673;-74
2022/03/03 02:59:21;;;;;;;27.57;19.37;;;3.10;99.90;;;;;;5074344;28;20430;-75
2022/03/03 03:01:48;;;;;;;25.87;18.83;;;3.20;99.90;;;;;;5075470;28;20992;-75
2022/03/03 03:04:15;;;;;;;27.97;19.30;;;3.20;99.90;;;;;;5075443;28;20462;-74
2022/03/03 03:06:42;;;;;;;26.57;18.70;;;3.20;99.90;;;;;;5075551;28;20560;-74
2022/03/03 03:09:09;;;;;;;23.77;17.90;;;3.10;99.90;;;;;;5075056;28;20426;-77
2022/03/03 03:11:36;;;;;;;29.80;18.80;;;3.00;99.90;;;;;;5075667;28;20439;-74
2022/03/03 03:14:04;;;;;;;28.93;19.10;;;3.00;99.90;;;;;;5075463;28;20804;-74
2022/03/03 03:16:31;;;;;;;29.48;24.10;;;3.10;99.90;;;;;;5074197;28;20786;-74
2022/03/03 03:18:58;;;;;;;27.50;19.93;;;3.30;99.90;;;;;;5074551;28;20252;-75
2022/03/03 03:21:25;;;;;;;27.33;18.93;;;3.30;99.90;;;;;;5075010;28;20489;-74
2022/03/03 03:23:52;;;;;;;30.03;19.37;;;3.30;99.90;;;;;;5074466;28;20478;-75
2022/03/03 03:26:19;;;;;;;29.60;19.43;;;3.20;99.90;;;;;;5075521;28;20526;-73
2022/03/03 03:28:46;;;;;;;24.47;18.53;;;3.20;99.90;;;;;;5075431;28;20453;-74
2022/03/03 03:31:14;;;;;;;27.07;18.73;;;3.30;99.90;;;;;;5074866;28;20462;-76
2022/03/03 03:33:41;;;;;;;29.53;18.97;;;3.20;99.90;;;;;;5075147;28;20442;-75
2022/03/03 03:36:07;;;;;;;27.63;19.40;;;3.10;99.90;;;;;;5075009;28;20578;-75
2022/03/03 03:38:34;;;;;;;29.53;18.90;;;3.10;99.90;;;;;;5074576;28;20451;-75
2022/03/03 03:41:01;;;;;;;27.60;18.57;;;3.20;99.90;;;;;;5074623;28;20474;-74
2022/03/03 03:43:28;;;;;;;25.80;18.77;;;3.10;99.90;;;;;;5073828;28;20449;-74
2022/03/03 03:45:55;;;;;;;29.47;18.37;;;3.20;99.90;;;;;;5074253;28;20822;-74
2022/03/03 03:48:23;;;;;;;32.63;20.03;;;3.20;99.90;;;;;;5074162;28;20446;-75
2022/03/03 03:50:50;;;;;;;26.93;19.07;;;3.20;99.90;;;;;;5073820;28;20906;-73
2022/03/03 03:53:17;;;;;;;26.57;19.17;;;3.20;99.90;;;;;;5074059;28;20933;-73
2022/03/03 03:55:44;;;;;;;31.50;20.40;;;3.20;99.90;;;;;;5074310;28;20438;-73
2022/03/03 03:58:11;;;;;;;25.00;18.33;;;3.10;99.90;;;;;;5074444;28;20446;-73
2022/03/03 04:00:38;;;;;;;27.10;19.20;;;3.10;99.90;;;;;;5073829;28;21074;-73
2022/03/03 04:03:05;;;;;;;35.83;19.67;;;3.00;99.90;;;;;;5074374;28;20823;-73
2022/03/03 04:05:33;;;;;;;28.33;24.73;;;2.90;99.90;;;;;;5073143;28;20446;-75
2022/03/03 04:08:00;;;;;;;30.37;19.50;;;3.20;99.90;;;;;;5074378;28;20209;-75
2022/03/03 04:10:28;;;;;;;26.93;19.90;;;3.20;99.90;;;;;;5073982;28;20826;-75
2022/03/03 04:12:55;;;;;;;27.33;19.60;;;3.20;99.90;;;;;;5074150;28;21007;-74
2022/03/03 04:15:23;;;;;;;28.20;19.57;;;3.10;99.90;;;;;;5074076;28;20443;-74
2022/03/03 04:17:50;;;;;;;27.80;19.60;;;3.10;99.90;;;;;;5073716;28;20454;-73
2022/03/03 04:20:18;;;;;;;26.90;19.50;;;3.10;99.90;;;;;;5073581;28;20446;-73
2022/03/03 04:22:46;;;;;;;25.57;19.60;;;3.10;99.90;;;;;;5074171;28;20447;-74
2022/03/03 04:25:13;;;;;;;29.53;20.37;;;3.00;99.90;;;;;;5073787;28;20446;-74
2022/03/03 04:27:40;;;;;;;27.83;19.33;;;2.90;99.90;;;;;;5073811;28;20435;-74
2022/03/03 04:30:09;;;;;;;32.47;20.03;;;2.90;99.90;;;;;;5073903;28;20451;-74
2022/03/03 04:32:36;;;;;;;30.00;20.83;;;2.80;99.90;;;;;;5073539;28;20814;-74
2022/03/03 04:35:03;;;;;;;30.60;19.60;;;2.80;99.90;;;;;;5073548;28;20446;-73
2022/03/03 04:37:31;;;;;;;29.70;20.50;;;2.80;99.90;;;;;;5073396;28;20451;-74
2022/03/03 04:39:59;;;;;;;25.80;18.87;;;2.80;99.90;;;;;;5073795;28;20488;-74
2022/03/03 04:42:26;;;;;;;27.00;19.43;;;2.60;99.90;;;;;;5073348;28;20486;-74
2022/03/03 04:44:53;;;;;;;32.30;19.93;;;2.60;99.90;;;;;;5073112;28;20459;-73
2022/03/03 04:47:20;;;;;;;29.40;20.03;;;2.70;99.90;;;;;;5073441;28;20430;-74
2022/03/03 04:49:46;;;;;;;27.13;19.20;;;2.70;99.90;;;;;;5072812;28;20451;-74
2022/03/03 04:52:13;;;;;;;29.80;19.57;;;2.60;99.90;;;;;;5073242;28;20445;-74
2022/03/03 04:54:40;;;;;;;31.33;25.52;;;2.60;99.90;;;;;;5071973;28;20453;-73
2022/03/03 04:57:08;;;;;;;30.27;22.00;;;2.90;99.90;;;;;;5073433;28;20593;-75
2022/03/03 04:59:35;;;;;;;26.07;20.23;;;2.90;99.90;;;;;;5072985;28;21059;-74
2022/03/03 05:02:02;;;;;;;28.63;19.00;;;2.70;99.90;;;;;;5072502;28;20863;-74
2022/03/03 05:04:28;;;;;;;26.57;19.03;;;2.70;99.90;;;;;;5072812;28;20454;-75
2022/03/03 05:06:55;;;;;;;28.33;20.10;;;2.50;99.90;;;;;;5073249;28;20446;-74
2022/03/03 05:09:22;;;;;;;32.63;19.80;;;2.50;99.90;;;;;;5073461;28;20442;-77
2022/03/03 05:11:49;;;;;;;28.57;20.03;;;2.40;99.90;;;;;;5073275;28;20419;-75
2022/03/03 05:14:17;;;;;;;28.57;18.43;;;2.40;99.90;;;;;;5073083;28;20425;-82
2022/03/03 05:16:44;;;;;;;31.20;19.57;;;2.40;99.90;;;;;;5073212;28;20450;-78
2022/03/03 05:19:11;;;;;;;32.30;25.00;;;2.40;99.90;;;;;;5071823;28;20424;-76
2022/03/03 05:21:39;;;;;;;29.43;20.37;;;2.50;99.90;;;;;;5072916;28;20497;-75
2022/03/03 05:24:06;;;;;;;38.40;22.17;;;2.50;99.90;;;;;;5073077;28;20823;-78
2022/03/03 05:26:33;;;;;;;29.10;19.67;;;2.40;99.90;;;;;;5073216;28;20438;-75
2022/03/03 05:29:01;;;;;;;31.00;19.40;;;2.40;99.90;;;;;;5072992;28;20956;-73
2022/03/03 05:31:29;;;;;;;27.50;19.40;;;2.30;99.90;;;;;;5072823;28;20461;-73
2022/03/03 05:33:55;;;;;;;27.73;19.27;;;2.30;99.90;;;;;;5072589;28;20462;-75
2022/03/03 05:36:26;;;;;;;26.67;18.43;;;2.10;99.90;;;;;;5072859;28;20451;-80
2022/03/03 05:38:58;;;;;;;27.07;18.63;;;2.10;99.90;;;;;;5072654;28;20449;-76
2022/03/03 05:41:25;;;;;;;26.23;18.63;;;2.20;99.90;;;;;;5073174;28;20478;-83
2022/03/03 05:43:52;;;;;;;30.70;18.87;;;2.20;99.90;;;;;;5072655;28;20952;-74
2022/03/03 05:46:20;;;;;;;30.73;18.93;;;2.20;99.90;;;;;;5072600;28;20933;-77
2022/03/03 05:48:49;;;;;;;29.37;20.13;;;2.20;99.90;;;;;;5072193;28;20953;-74
2022/03/03 05:51:16;;;;;;;26.33;19.80;;;2.20;99.90;;;;;;5072821;28;20451;-74
2022/03/03 05:53:43;;;;;;;30.73;20.20;;;2.10;99.90;;;;;;5072782;28;20453;-79
2022/03/03 05:56:11;;;;;;;30.37;19.03;;;2.10;99.90;;;;;;5072454;28;20449;-76
2022/03/03 05:58:42;;;;;;;30.97;19.70;;;2.10;99.90;;;;;;5072810;28;20496;-74
2022/03/03 06:01:11;;;;;;;36.03;19.67;;;2.00;99.90;;;;;;5066313;28;20479;-74
2022/03/03 06:03:39;;;;;;;31.40;21.60;;;2.00;99.90;;;;;;5063554;28;20482;-74
2022/03/03 06:06:14;;;;;;;27.77;19.27;;;2.00;99.90;;;;;;5070490;28;20454;-80
2022/03/03 06:08:43;;;;;;;33.77;20.07;;;2.00;99.90;;;;;;5074882;28;20441;-73
2022/03/03 06:11:14;;;;;;;29.27;19.60;;;2.00;99.90;;;;;;5076635;28;20791;-74
2022/03/03 06:13:47;;;;;;;34.43;19.30;;;2.00;99.90;;;;;;5075844;28;20480;-74
2022/03/03 06:16:18;;;;;;;35.33;19.63;;;1.90;99.90;;;;;;5075518;28;20469;-74
2022/03/03 06:18:47;;;;;;;38.77;20.03;;;1.90;99.90;;;;;;5068634;28;20688;-78
2022/03/03 06:21:15;;;;;;;34.53;19.93;;;1.90;99.90;;;;;;5056355;28;20487;-75
2022/03/03 06:23:43;;;;;;;53.60;20.57;;;1.80;99.90;;;;;;5056304;28;20439;-79
2022/03/03 06:26:12;;;;;;;32.07;20.40;;;1.80;99.90;;;;;;5056464;28;20432;-74
2022/03/03 06:28:39;;;;;;;31.53;19.93;;;1.80;99.90;;;;;;5056434;28;20824;-75
2022/03/03 06:31:07;;;;;;;35.22;23.25;;;1.70;99.90;;;;;;5055838;28;20429;-76
2022/03/03 06:33:36;;;;;;;36.13;21.07;;;1.80;99.90;;;;;;5055987;28;20210;-74
2022/03/03 06:36:03;;;;;;;32.70;20.23;;;1.80;99.90;;;;;;5056527;28;20926;-76
2022/03/03 06:38:32;;;;;;;34.67;20.17;;;1.90;99.90;;;;;;5056042;28;20451;-76
2022/03/03 06:40:59;;;;;;;36.30;21.73;;;1.80;99.90;;;;;;5055853;28;20466;-74
2022/03/03 06:43:27;;;;;;;33.80;20.90;;;1.90;99.90;;;;;;5056372;28;20439;-76
2022/03/03 06:45:55;;;;;;;29.37;20.67;;;1.90;99.90;;;;;;5055526;28;20462;-76
2022/03/03 06:48:22;;;;;;;37.27;21.40;;;1.90;99.90;;;;;;5055875;28;20439;-74
2022/03/03 06:50:52;;;;;;;34.63;22.27;;;1.90;99.90;;;;;;5055485;28;20809;-79
2022/03/03 06:53:21;;;;;;;29.03;20.10;;;1.80;99.90;;;;;;5055901;28;20448;-77
2022/03/03 06:55:51;;;;;;;33.88;24.13;;;1.80;99.90;;;;;;5056030;28;20460;-76
2022/03/03 06:58:20;;;;;;;31.53;22.57;;;1.90;99.90;;;;;;5055615;28;20564;-75
2022/03/03 07:00:52;;;;;;;30.43;19.63;;;2.00;99.90;;;;;;5055004;28;20840;-76
2022/03/03 07:03:21;;;;;;;33.63;21.17;;;2.10;99.90;;;;;;5055866;28;20521;-75
2022/03/03 07:05:49;;;;;;;32.37;19.67;;;2.00;99.90;;;;;;5055575;28;20498;-75
2022/03/03 07:08:16;;;;;;;39.40;22.17;;;2.00;99.90;;;;;;5055257;28;20450;-76
2022/03/03 07:10:44;;;;;;;31.37;20.10;;;2.00;99.90;;;;;;5055220;28;20451;-75
2022/03/03 07:13:15;;;;;;;32.83;20.23;;;2.10;99.90;;;;;;5055032;28;20443;-75
2022/03/03 07:15:47;;;;;;;31.63;20.00;;;2.20;99.90;;;;;;5054807;28;20438;-76
2022/03/03 07:18:17;;;;;;;29.67;19.30;;;2.30;99.90;;;;;;5055069;28;20463;-74
2022/03/03 07:20:52;;;;;;;31.15;24.02;;;2.40;99.90;;;;;;5054309;28;20433;-73
2022/03/03 07:23:32;;;;;;;34.97;21.73;;;2.50;99.90;;;;;;5055124;28;20248;-76
2022/03/03 07:26:01;;;;;;;29.10;19.97;;;2.60;99.90;;;;;;5054893;28;20509;-73
2022/03/03 07:28:31;;;;;;;29.90;20.03;;;2.60;99.90;;;;;;5054892;28;20448;-73
2022/03/03 07:31:00;;;;;;;33.63;20.30;;;2.60;99.90;;;;;;5054992;28;20818;-74
2022/03/03 07:33:39;;;;;;;33.63;20.50;;;2.60;99.90;;;;;;5055596;28;20471;-74
2022/03/03 07:36:08;;;;;;;34.33;20.63;;;2.70;99.90;;;;;;5058884;28;20451;-75
2022/03/03 07:38:37;;;;;;;29.63;19.73;;;2.80;99.90;;;;;;5072344;28;20953;-74
2022/03/03 07:41:05;;;;;;;28.90;20.23;;;2.80;99.90;;;;;;5074104;28;20960;-74
2022/03/03 07:43:33;;;;;;;29.93;19.43;;;2.80;99.90;;;;;;5071575;28;20482;-74
2022/03/03 07:46:00;;;;;;;29.65;24.25;;;2.80;99.90;;;;;;5073136;28;21369;-81
2022/03/03 07:48:27;;;;;;;28.63;20.07;;;3.20;99.90;;;;;;5071461;28;20209;-86
2022/03/03 07:50:54;;;;;;;26.13;19.20;;;3.30;99.90;;;;;;5073288;28;20446;-78
2022/03/03 07:53:21;;;;;;;28.00;18.93;;;3.30;99.90;;;;;;5073658;28;20953;-74
2022/03/03 07:55:50;;;;;;;30.57;19.10;;;3.40;99.90;;;;;;5073577;28;20438;-75
2022/03/03 07:58:19;;;;;;;29.13;21.17;;;3.40;99.90;;;;;;5073133;28;20450;-78
2022/03/03 08:00:49;;;;;;;29.33;19.60;;;3.50;99.90;;;;;;5081255;28;20447;-79
2022/03/03 08:03:20;;;;;;;25.83;20.07;;;3.50;99.90;;;;;;5073321;28;20478;-78
2022/03/03 08:05:49;;;;;;;27.83;18.90;;;3.60;99.90;;;;;;5074129;28;20454;-76
2022/03/03 08:08:18;;;;;;;43.03;21.00;;;3.60;99.90;;;;;;5074198;28;20442;-74
2022/03/03 08:10:46;;;;;;;29.70;24.17;;;3.90;99.90;;;;;;5073347;28;20420;-73
2022/03/03 08:13:14;;;;;;;30.03;19.97;;;4.30;99.90;;;;;;5074359;28;20190;-76
2022/03/03 08:15:42;;;;;;;39.57;19.13;;;4.40;99.90;;;;;;5075386;28;20435;-74
2022/03/03 08:18:11;;;;;;;28.87;19.97;;;4.60;99.90;;;;;;5074966;28;20466;-73
2022/03/03 08:20:38;;;;;;;29.70;18.43;;;4.70;99.90;;;;;;5074344;28;20447;-74
2022/03/03 08:23:07;;;;;;;31.90;19.73;;;4.70;99.90;;;;;;5073884;28;20486;-75
2022/03/03 08:25:37;;;;;;;29.10;18.63;;;4.70;99.90;;;;;;5063098;28;20441;-77
2022/03/03 08:28:07;;;;;;;34.40;19.90;;;4.60;99.90;;;;;;5073018;28;20961;-75
2022/03/03 08:30:35;;;;;;;33.53;19.37;;;4.60;99.90;;;;;;5077297;28;20438;-75
2022/03/03 08:33:08;;;;;;;31.30;18.03;;;4.60;99.90;;;;;;5073954;28;20470;-75
2022/03/03 08:35:40;;;;;;;28.07;18.07;;;4.70;99.90;;;;;;5073543;28;20876;-75
2022/03/03 08:38:08;;;;;;;29.27;18.33;;;4.90;99.90;;;;;;5073150;28;20442;-74
2022/03/03 08:40:36;;;;;;;31.03;18.87;;;5.20;99.90;;;;;;5067406;28;20613;-76
2022/03/03 08:43:05;;;;;;;26.50;18.83;;;5.30;99.90;;;;;;5072766;28;20489;-74
2022/03/03 08:45:33;;;;;;;34.63;20.83;;;5.60;99.90;;;;;;5073769;28;20204;-75
2022/03/03 08:48:01;;;;;;;27.77;19.20;;;5.90;99.90;;;;;;5072944;28;20625;-76
2022/03/03 08:50:30;;;;;;;45.70;19.27;;;6.00;99.90;;;;;;5072821;28;20206;-74
2022/03/03 08:52:59;;;;;;;33.97;18.80;;;6.00;99.90;;;;;;5070301;28;20330;-74
2022/03/03 08:55:29;;;;;;;27.73;17.77;;;6.10;99.90;;;;;;5072866;28;20648;-74
2022/03/03 08:57:58;;;;;;;24.77;17.17;;;6.20;99.90;;;;;;5073071;28;20197;-73
2022/03/03 09:00:25;;;;;;;29.20;18.67;;;6.40;99.90;;;;;;5075821;28;20285;-75
2022/03/03 09:02:53;;;;;;;34.83;18.77;;;6.60;99.90;;;;;;5074279;28;20220;-75
2022/03/03 09:05:20;;;;;;;32.67;19.17;;;6.60;99.90;;;;;;5073876;28;20194;-73
2022/03/03 09:07:47;;;;;;;31.50;18.87;;;6.60;99.90;;;;;;5072332;28;20565;-74
2022/03/03 09:10:16;;;;;;;32.00;18.33;;;6.70;99.90;;;;;;5072869;28;20197;-80
2022/03/03 09:12:43;;;;;;;26.63;17.43;;;6.90;99.90;;;;;;5073824;28;20206;-79
2022/03/03 09:15:11;;;;;;;24.40;17.50;;;7.00;99.90;;;;;;5073252;28;20189;-77
2022/03/03 09:17:39;;;;;;;34.40;17.13;;;7.20;99.90;;;;;;5074777;28;20209;-76
2022/03/03 09:20:11;;;;;;;22.93;16.80;;;7.30;99.90;;;;;;5075048;28;20213;-77
2022/03/03 09:22:38;;;;;;;24.63;16.85;;;7.50;99.90;;;;;;5073971;28;20814;-77
2022/03/03 09:25:06;;;;;;;29.33;18.20;;;7.50;99.90;;;;;;5074909;28;20320;-77
2022/03/03 09:27:34;;;;;;;30.13;17.90;;;7.70;99.90;;;;;;5074223;28;20212;-77
2022/03/03 09:30:02;;;;;;;28.00;17.60;;;7.80;99.90;;;;;;5090837;28;20201;-78
2022/03/03 09:32:28;;;;;;;23.90;17.63;;;8.00;99.90;;;;;;5094355;28;20208;-77
2022/03/03 09:34:55;;;;;;;28.63;18.97;;;8.00;99.90;;;;;;5093399;28;20665;-78
2022/03/03 09:37:22;;;;;;;27.17;17.47;;;8.00;99.90;;;;;;5094229;28;20212;-77
2022/03/03 09:39:50;;;;;;;24.47;17.77;;;8.20;99.90;;;;;;5094364;28;20208;-79
2022/03/03 09:42:17;;;;;;;26.17;17.93;;;8.20;99.90;;;;;;5094180;28;20232;-80
2022/03/03 09:44:45;;;;;;;22.97;17.50;;;8.40;99.90;;;;;;5081793;28;20206;-80
2022/03/03 09:47:12;;;;;;;26.17;18.57;;;8.60;99.90;;;;;;5064743;28;20198;-82
2022/03/03 09:49:39;;;;;;;31.23;19.27;;;8.80;99.90;;;;;;5058716;28;20273;-88
2022/03/03 09:52:13;;;;;;;25.33;18.43;;;8.90;99.90;;;;;;5057072;28;20213;-86
2022/03/03 09:54:41;;;;;;;26.53;20.30;;;9.00;99.90;;;;;;5057458;28;20194;-84
2022/03/03 09:57:07;;;;;;;29.97;21.03;;;9.00;99.90;;;;;;5057103;28;20669;-85
2022/03/03 09:59:34;;;;;;;30.73;21.03;;;8.80;99.90;;;;;;5082684;28;20240;-86
2022/03/03 10:02:08;;;;;;;30.10;21.60;;;9.00;99.90;;;;;;5097398;28;20631;-85
2022/03/03 10:04:36;;;;;;;29.37;19.70;;;8.90;99.90;;;;;;5098072;28;20203;-85
2022/03/03 10:07:05;;;;;;;30.30;21.60;;;9.10;99.90;;;;;;5097239;28;20604;-82
2022/03/03 10:09:32;;;;;;;26.87;21.23;;;9.20;99.90;;;;;;5096874;28;20202;-85
2022/03/03 10:12:00;;;;;;;30.17;21.75;;;9.30;99.90;;;;;;5097008;28;20449;-82
2022/03/03 10:14:28;;;;;;;32.50;21.67;;;9.40;99.90;;;;;;5096745;28;20213;-83
2022/03/03 10:16:55;;;;;;;26.73;20.57;;;9.50;99.90;;;;;;5096982;28;20697;-79
2022/03/03 10:19:23;;;;;;;31.43;22.10;;;9.50;99.90;;;;;;5096561;28;20225;-83
2022/03/03 10:21:50;;;;;;;27.90;21.73;;;9.70;99.90;;;;;;5096819;28;20193;-81
2022/03/03 10:24:21;;;;;;;30.03;19.47;;;9.60;99.90;;;;;;5096089;28;20629;-82
2022/03/03 10:26:57;;;;;;;27.60;20.33;;;9.70;99.90;;;;;;5096593;28;20209;-77
2022/03/03 10:29:24;;;;;;;27.87;20.70;;;9.70;99.90;;;;;;5096458;28;20659;-83
2022/03/03 10:31:53;;;;;;;28.37;21.37;;;9.80;99.90;;;;;;5096861;28;20193;-81
2022/03/03 10:34:22;;;;;;;26.90;20.57;;;9.90;99.90;;;;;;5097834;28;20221;-82
2022/03/03 10:37:01;;;;;;;30.08;22.35;;;10.00;99.90;;;;;;5097285;28;20422;-82
2022/03/03 10:39:39;;;;;;;33.97;19.97;;;10.20;99.90;;;;;;5096541;28;20200;-75
2022/03/03 10:42:13;;;;;;;27.60;20.27;;;10.00;99.90;;;;;;5096683;28;20193;-78
2022/03/03 10:44:40;;;;;;;28.20;20.00;;;9.90;99.90;;;;;;5097227;28;20716;-78
2022/03/03 10:47:09;;;;;;;35.80;21.23;;;10.20;99.90;;;;;;5088764;28;20285;-80
2022/03/03 10:49:37;;;;;;;34.67;21.57;;;10.10;99.90;;;;;;5075469;28;20216;-83
2022/03/03 10:52:14;;;;;;;26.80;20.80;;;10.20;99.90;;;;;;5075525;28;20211;-83
2022/03/03 10:54:52;;;;;;;29.00;21.43;;;10.00;99.90;;;;;;5075368;28;20197;-81
2022/03/03 10:57:33;;;;;;;32.87;21.97;;;10.20;99.90;;;;;;5075835;28;20722;-78
2022/03/03 11:00:01;;;;;;;35.17;23.10;;;10.30;99.90;;;;;;5092175;28;20201;-81
2022/03/03 11:02:28;;;;;;;32.63;25.60;;;10.40;99.90;;;;;;5095375;28;20411;-83
2022/03/03 11:04:56;;;;;;;31.00;23.60;;;10.60;99.90;;;;;;5095944;28;20256;-81
2022/03/03 11:07:24;;;;;;;30.30;21.80;;;10.80;99.90;;;;;;5096067;28;20205;-80
2022/03/03 11:09:51;;;;;;;28.37;21.47;;;10.80;99.90;;;;;;5095828;28;20212;-87
2022/03/03 11:12:19;;;;;;;28.90;20.47;;;10.80;99.90;;;;;;5080547;28;20608;-83
2022/03/03 11:14:47;;;;;;;33.47;22.97;;;10.70;99.90;;;;;;5075882;28;20232;-88
2022/03/03 11:17:18;;;;;;;29.83;21.17;;;10.90;99.90;;;;;;5075772;28;20209;-85
2022/03/03 11:19:49;;;;;;;27.80;21.10;;;11.00;99.90;;;;;;5075805;28;20221;-84
2022/03/03 11:22:17;;;;;;;28.10;20.67;;;10.80;99.90;;;;;;5075779;28;20241;-86
2022/03/03 11:24:46;;;;;;;34.43;21.37;;;10.90;99.90;;;;;;5075536;28;20267;-88
2022/03/03 11:27:13;;;;;;;29.17;24.70;;;10.80;99.90;;;;;;5074734;28;20436;-78
2022/03/03 11:29:40;;;;;;;30.30;21.70;;;11.10;99.90;;;;;;5088185;28;20204;-77
2022/03/03 11:32:08;;;;;;;29.80;21.53;;;11.30;99.90;;;;;;5095007;28;20209;-78
2022/03/03 11:34:44;;;;;;;32.07;21.37;;;11.30;99.90;;;;;;5094849;28;20206;-78
2022/03/03 11:37:22;;;;;;;27.93;22.27;;;11.40;99.90;;;;;;5094732;28;20209;-77
2022/03/03 11:39:57;;;;;;;29.97;22.03;;;11.50;99.90;;;;;;5090278;28;20203;-86
2022/03/03 11:42:32;;;;;;;31.03;21.60;;;11.60;99.90;;;;;;5073164;28;20226;-90
2022/03/03 11:45:03;;;;;;;31.27;22.10;;;11.60;99.90;;;;;;5075149;28;20198;-87
2022/03/03 11:47:32;;;;;;;36.03;21.73;;;11.50;99.90;;;;;;5075599;28;20191;-78
2022/03/03 11:50:17;;;;;;;28.00;21.37;;;11.50;99.90;;;;;;5074792;28;20204;-89
2022/03/03 11:52:53;;;;;;;25.27;21.07;;;11.60;99.90;;;;;;5068481;28;20255;-87
2022/03/03 11:55:37;;;;;;;30.27;22.07;;;11.60;99.90;;;;;;5074312;28;20228;-80
2022/03/03 11:58:06;;;;;;;30.27;21.70;;;11.80;99.90;;;;;;5058669;28;20202;-80
2022/03/03 12:00:35;;;;;;;28.33;21.57;;;11.70;99.90;;;;;;5074192;28;20210;-84
2022/03/03 12:03:04;;;;;;;28.67;20.77;;;11.80;99.90;;;;;;5074944;28;20571;-80
2022/03/03 12:05:45;;;;;;;27.47;21.23;;;11.90;99.90;;;;;;5072710;28;20685;-85
2022/03/03 12:08:35;;;;;;;27.73;20.30;;;11.80;99.90;;;;;;5074713;28;20203;-83
2022/03/03 12:11:11;;;;;;;29.13;20.90;;;11.70;99.90;;;;;;5074384;28;20290;-81
2022/03/03 12:13:48;;;;;;;29.97;20.67;;;11.80;99.90;;;;;;5074409;28;20186;-86
2022/03/03 12:16:24;;;;;;;29.77;20.93;;;12.00;99.90;;;;;;5073934;28;20206;-83
2022/03/03 12:19:08;;;;;;;32.33;20.77;;;12.20;99.90;;;;;;5074045;28;20271;-79
2022/03/03 12:21:37;;;;;;;23.83;19.67;;;12.30;99.90;;;;;;5072624;28;20205;-85
2022/03/03 12:24:32;;;;;;;27.13;20.33;;;12.40;99.90;;;;;;5073699;28;20232;-83
2022/03/03 12:27:14;;;;;;;30.20;20.73;;;12.20;99.90;;;;;;5073519;28;20654;-83
2022/03/03 12:29:59;;;;;;;29.13;20.20;;;12.10;99.90;;;;;;5073891;28;20625;-78
2022/03/03 12:32:39;;;;;;;25.80;20.03;;;12.10;99.90;;;;;;5074827;28;20271;-78
2022/03/03 12:35:10;;;;;;;29.97;21.40;;;12.30;99.90;;;;;;5074188;28;20209;-82
2022/03/03 12:37:45;;;;;;;28.60;20.90;;;12.20;99.90;;;;;;5076631;28;20687;-85
2022/03/03 12:40:13;;;;;;;30.33;20.70;;;12.30;99.90;;;;;;5075864;28;20207;-80
2022/03/03 12:42:44;;;;;;;27.47;20.07;;;12.40;99.90;;;;;;5074525;28;20202;-80
2022/03/03 12:45:14;;;;;;;30.70;21.03;;;12.20;99.90;;;;;;5074949;28;20585;-83
2022/03/03 12:47:43;;;;;;;29.07;20.90;;;12.20;99.90;;;;;;5074941;28;20211;-84